Time;durP1;ratioP1;P1;durP2;ratioP2;P2;SDS_P1;SDS_P2;PMS_P1;PMS_P2;Temp;Humidity;BMP_temperature;BMP_pressure;BME280_temperature;BME280_humidity;BME280_pressure;Samples;Min_cycle;Max_cycle;Signal;HPM_P1;HPM_P2
2022/10/21 00:01:13;;;;;;;24.55;15.00;;;;;;;12.65;57.00;101148.44;7390822;19;20006;-69
2022/10/21 00:03:39;;;;;;;21.20;13.05;;;;;;;12.70;56.78;101153.69;7389028;19;20058;-70
2022/10/21 00:06:05;;;;;;;22.58;14.00;;;;;;;12.66;56.94;101160.97;7389764;19;20499;-70
2022/10/21 00:08:31;;;;;;;22.75;14.07;;;;;;;12.70;56.96;101156.41;7388581;19;19999;-67
2022/10/21 00:10:59;;;;;;;20.90;13.48;;;;;;;12.68;56.83;101147.75;7391236;19;20006;-71
2022/10/21 00:13:27;;;;;;;23.25;13.82;;;;;;;12.71;56.92;101141.59;7389902;19;19998;-70
2022/10/21 00:16:14;;;;;;;21.35;13.70;;;;;;;12.71;56.85;101138.84;7392169;19;20062;-80
2022/10/21 00:18:42;;;;;;;22.38;13.85;;;;;;;12.72;56.74;101143.16;7391459;19;20020;-72
2022/10/21 00:21:11;;;;;;;22.83;14.18;;;;;;;12.71;56.78;101138.84;7391991;19;19994;-73
2022/10/21 00:23:37;;;;;;;24.70;14.05;;;;;;;12.71;56.90;101134.16;7392246;19;19999;-70
2022/10/21 00:26:03;;;;;;;22.58;13.95;;;;;;;12.74;57.06;101127.16;7392175;19;20392;-74
2022/10/21 00:28:29;;;;;;;23.13;14.52;;;;;;;12.75;56.87;101131.53;7391910;19;20022;-75
2022/10/21 00:30:55;;;;;;;22.85;14.07;;;;;;;12.77;56.84;101124.56;7391940;19;20329;-76
2022/10/21 00:33:21;;;;;;;24.08;14.80;;;;;;;12.80;56.76;101134.00;7388770;19;20011;-75
2022/10/21 00:35:56;;;;;;;20.63;13.95;;;;;;;12.80;56.70;101131.28;7392253;19;20008;-74
2022/10/21 00:38:22;;;;;;;23.35;14.27;;;;;;;12.80;56.86;101134.00;7390275;19;20002;-76
2022/10/21 00:40:47;;;;;;;25.35;14.70;;;;;;;12.76;56.95;101135.88;7392497;19;20021;-74
2022/10/21 00:43:13;;;;;;;20.67;13.63;;;;;;;12.75;56.98;101126.03;7389732;19;20336;-73
2022/10/21 00:45:39;;;;;;;25.42;14.55;;;;;;;12.77;56.84;101119.09;7391387;19;19995;-72
2022/10/21 00:48:15;;;;;;;22.52;13.73;;;;;;;12.79;56.64;101115.97;7391112;19;20001;-73
2022/10/21 00:51:09;;;;;;;20.42;13.25;;;;;;;12.80;57.12;101109.34;7391163;19;19998;-73
2022/10/21 00:53:38;;;;;;;24.77;14.25;;;;;;;12.81;56.96;101100.00;7388358;19;19999;-71
2022/10/21 00:56:10;;;;;;;19.75;12.88;;;;;;;12.80;56.82;101101.13;7391927;19;19998;-71
2022/10/21 00:58:36;;;;;;;20.13;12.93;;;;;;;12.74;57.02;101103.34;7388295;19;20066;-72
2022/10/21 01:01:05;;;;;;;21.13;13.80;;;;;;;12.75;57.08;101104.13;7389313;19;20019;-69
2022/10/21 01:03:31;;;;;;;26.95;15.15;;;;;;;12.78;56.87;101103.44;7389080;19;20016;-73
2022/10/21 01:06:00;;;;;;;21.83;13.25;;;;;;;12.76;57.23;101094.78;7394448;19;20001;-70
2022/10/21 01:08:27;;;;;;;25.13;15.68;;;;;;;12.81;56.89;101094.53;7394408;19;20002;-68
2022/10/21 01:10:53;;;;;;;23.05;13.65;;;;;;;12.75;57.02;101093.19;7398451;19;20007;-74
2022/10/21 01:13:37;;;;;;;23.17;13.27;;;;;;;12.75;57.35;101083.00;7396411;19;20026;-74
2022/10/21 01:16:35;;;;;;;;;;;;;;;12.73;57.93;101082.56;7398592;19;20005;-75
2022/10/21 01:19:21;;;;;;;20.48;12.85;;;;;;;12.74;57.27;101075.13;7391857;19;19923;-71
2022/10/21 01:21:53;;;;;;;23.08;14.25;;;;;;;12.74;57.28;101069.66;7397827;19;20001;-71
2022/10/21 01:24:22;;;;;;;26.20;15.98;;;;;;;12.73;56.76;101062.59;7396897;19;20503;-64
2022/10/21 01:27:41;;;;;;;25.98;15.07;;;;;;;12.74;57.19;101055.97;7395291;19;20027;-67
2022/10/21 01:30:16;;;;;;;23.15;13.70;;;;;;;12.71;56.67;101060.22;7393184;19;19999;-69
2022/10/21 01:32:54;;;;;;;27.92;13.93;;;;;;;12.66;56.96;101056.91;7395620;19;20065;-67
2022/10/21 01:35:31;;;;;;;20.65;13.38;;;;;;;12.63;57.12;101052.94;7394526;19;20002;-68
2022/10/21 01:38:17;;;;;;;23.00;13.93;;;;;;;12.63;56.99;101046.69;7395401;19;20153;-67
2022/10/21 01:40:53;;;;;;;25.25;14.45;;;;;;;12.55;57.03;101054.69;7397122;19;20012;-67
2022/10/21 01:43:25;;;;;;;21.63;13.52;;;;;;;12.50;57.30;101048.66;7393463;19;20082;-68
2022/10/21 01:45:56;;;;;;;26.58;14.77;;;;;;;12.51;57.09;101051.06;7395255;19;20003;-68
2022/10/21 01:48:27;;;;;;;26.13;15.88;;;;;;;12.44;57.16;101053.59;7394854;19;20006;-68
2022/10/21 01:51:00;;;;;;;28.95;15.20;;;;;;;12.40;57.49;101047.22;7396584;19;20007;-68
2022/10/21 01:53:30;;;;;;;25.52;14.32;;;;;;;12.48;57.41;101045.50;7394616;19;20020;-68
2022/10/21 01:56:01;;;;;;;23.98;14.93;;;;;;;12.50;57.03;101040.44;7395686;19;20067;-68
2022/10/21 01:58:30;;;;;;;27.08;14.90;;;;;;;12.55;56.97;101034.72;7391761;19;20086;-68
2022/10/21 02:00:59;;;;;;;24.42;14.90;;;;;;;12.52;56.90;101041.69;7395289;19;20066;-68
2022/10/21 02:03:30;;;;;;;22.45;14.45;;;;;;;12.45;56.93;101036.00;7393283;19;20007;-68
2022/10/21 02:05:56;;;;;;;21.15;13.55;;;;;;;12.47;57.20;101027.47;7395919;19;20423;-68
2022/10/21 02:08:21;;;;;;;23.27;14.65;;;;;;;12.47;56.95;101019.25;7392702;19;20002;-68
2022/10/21 02:10:51;;;;;;;26.30;15.27;;;;;;;12.41;57.27;101018.72;7394342;19;20010;-68
2022/10/21 02:13:22;;;;;;;24.05;14.82;;;;;;;12.39;57.37;101013.59;7393958;19;20017;-68
2022/10/21 02:15:52;;;;;;;23.92;14.45;;;;;;;12.44;57.42;101011.72;7393579;19;20448;-68
2022/10/21 02:18:21;;;;;;;22.90;14.25;;;;;;;12.44;57.13;101006.25;7390062;19;20002;-68
2022/10/21 02:20:51;;;;;;;22.05;13.55;;;;;;;12.42;57.09;101009.34;7394723;19;20002;-68
2022/10/21 02:23:22;;;;;;;23.58;14.30;;;;;;;12.42;57.39;101001.13;7391422;19;20006;-68
2022/10/21 02:25:49;;;;;;;24.10;15.13;;;;;;;12.47;57.00;101002.81;7394782;19;19998;-68
2022/10/21 02:28:16;;;;;;;23.55;14.18;;;;;;;12.38;57.11;100997.50;7394449;19;20019;-68
2022/10/21 02:30:48;;;;;;;23.92;14.15;;;;;;;12.38;57.37;100986.56;7393387;19;20009;-68
2022/10/21 02:33:30;;;;;;;23.77;15.00;;;;;;;12.41;57.23;100985.88;7392597;19;20432;-68
2022/10/21 02:36:12;;;;;;;27.48;14.68;;;;;;;12.45;56.98;100985.97;7394847;19;20058;-68
2022/10/21 02:38:50;;;;;;;25.10;14.15;;;;;;;12.39;57.02;100979.91;7392142;19;20006;-69
2022/10/21 02:41:20;;;;;;;26.10;14.50;;;;;;;12.40;57.20;100978.78;7393186;19;19999;-70
2022/10/21 02:43:51;;;;;;;21.35;14.18;;;;;;;12.38;57.13;100986.56;7393855;19;19999;-73
2022/10/21 02:46:17;;;;;;;23.83;14.13;;;;;;;12.40;57.17;100984.25;7394445;19;19999;-73
2022/10/21 02:48:45;;;;;;;23.75;13.93;;;;;;;12.38;57.06;100981.09;7391871;19;19998;-73
2022/10/21 02:51:11;;;;;;;22.20;14.25;;;;;;;12.28;57.40;100970.63;7394836;19;20006;-67
2022/10/21 02:53:37;;;;;;;24.60;13.90;;;;;;;12.08;57.66;100973.22;7393108;19;19995;-71
2022/10/21 02:56:03;;;;;;;23.85;14.38;;;;;;;11.97;57.83;100961.97;7393673;19;20489;-72
2022/10/21 02:58:29;;;;;;;23.02;12.80;;;;;;;12.04;57.57;100966.84;7391994;19;20006;-69
2022/10/21 03:00:55;;;;;;;21.63;12.90;;;;;;;12.14;57.42;100969.09;7393272;19;19999;-65
2022/10/21 03:03:21;;;;;;;26.65;14.10;;;;;;;12.15;57.25;100970.66;7392602;19;20019;-66
2022/10/21 03:05:47;;;;;;;21.85;13.23;;;;;;;12.02;57.57;100971.84;7394488;19;19998;-66
2022/10/21 03:08:13;;;;;;;23.63;14.55;;;;;;;11.97;57.83;100969.38;7389671;19;20011;-68
2022/10/21 03:10:38;;;;;;;24.08;14.45;;;;;;;11.91;57.79;100957.88;7393622;19;20006;-69
2022/10/21 03:13:04;;;;;;;22.40;13.70;;;;;;;11.89;57.93;100959.34;7391664;19;20035;-69
2022/10/21 03:15:29;;;;;;;26.42;13.73;;;;;;;11.90;57.77;100950.03;7393416;19;20066;-70
2022/10/21 03:17:55;;;;;;;27.25;16.67;;;;;;;11.96;57.48;100943.16;7391780;19;20010;-70
2022/10/21 03:20:20;;;;;;;27.60;14.95;;;;;;;11.91;57.59;100946.16;7393736;19;20024;-71
2022/10/21 03:22:46;;;;;;;23.10;14.30;;;;;;;11.90;57.79;100941.81;7392179;19;20014;-71
2022/10/21 03:25:12;;;;;;;24.15;13.90;;;;;;;11.90;57.54;100947.28;7392586;19;20014;-71
2022/10/21 03:27:38;;;;;;;24.33;13.48;;;;;;;11.95;57.23;100941.56;7392633;19;20464;-71
2022/10/21 03:30:06;;;;;;;22.67;12.88;;;;;;;11.95;57.12;100945.09;7390977;19;20460;-72
2022/10/21 03:32:32;;;;;;;20.00;13.25;;;;;;;11.85;57.32;100949.09;7391392;19;20069;-72
2022/10/21 03:34:58;;;;;;;20.33;11.80;;;;;;;11.83;57.12;100948.63;7391681;19;20009;-72
2022/10/21 03:37:23;;;;;;;21.55;12.57;;;;;;;11.81;57.29;100937.25;7390165;19;19995;-72
2022/10/21 03:39:49;;;;;;;21.88;12.55;;;;;;;11.78;57.29;100937.16;7390080;19;20002;-70
2022/10/21 03:42:14;;;;;;;21.73;12.57;;;;;;;11.78;57.24;100942.63;7392143;19;20402;-70
2022/10/21 03:44:40;;;;;;;24.48;13.85;;;;;;;11.91;56.84;100943.41;7390206;19;20047;-69
2022/10/21 03:47:06;;;;;;;31.35;14.00;;;;;;;11.97;56.63;100940.09;7392719;19;20002;-69
2022/10/21 03:49:32;;;;;;;21.58;13.18;;;;;;;11.98;56.33;100943.63;7390872;19;20002;-70
2022/10/21 03:51:57;;;;;;;23.80;13.43;;;;;;;11.73;56.76;100940.91;7392387;19;20052;-70
2022/10/21 03:54:23;;;;;;;22.15;12.88;;;;;;;11.77;56.88;100936.38;7390426;19;20005;-70
2022/10/21 03:56:48;;;;;;;19.80;12.35;;;;;;;11.81;56.59;100937.25;7391417;19;20043;-68
2022/10/21 03:59:21;;;;;;;20.02;12.52;;;;;;;11.80;56.83;100945.78;7389235;19;20003;-67
2022/10/21 04:01:46;;;;;;;23.75;13.18;;;;;;;11.81;57.00;100939.19;7390509;19;20010;-68
2022/10/21 04:04:12;;;;;;;21.55;13.73;;;;;;;11.87;56.80;100929.63;7391414;19;19998;-68
2022/10/21 04:06:37;;;;;;;21.48;13.85;;;;;;;11.95;56.88;100936.09;7392252;19;20698;-68
2022/10/21 04:09:03;;;;;;;20.27;12.95;;;;;;;12.01;56.95;100929.25;7387468;19;19999;-68
2022/10/21 04:11:29;;;;;;;23.27;13.77;;;;;;;11.98;56.94;100928.00;7392093;19;19998;-68
2022/10/21 04:13:54;;;;;;;24.05;14.63;;;;;;;12.06;56.85;100923.53;7389314;19;19998;-69
2022/10/21 04:16:21;;;;;;;27.02;14.10;;;;;;;12.12;56.86;100913.91;7389374;19;20385;-69
2022/10/21 04:18:47;;;;;;;22.52;13.48;;;;;;;12.16;56.73;100914.81;7388078;19;20011;-69
2022/10/21 04:21:12;;;;;;;25.23;13.98;;;;;;;12.20;56.77;100907.47;7391001;19;20019;-68
2022/10/21 04:23:38;;;;;;;24.08;13.60;;;;;;;12.24;56.80;100915.81;7390043;19;20002;-68
2022/10/21 04:26:05;;;;;;;28.50;14.88;;;;;;;12.23;56.79;100906.00;7391859;19;19998;-68
2022/10/21 04:28:31;;;;;;;26.77;14.77;;;;;;;12.22;56.75;100913.44;7390810;19;19998;-68
2022/10/21 04:30:56;;;;;;;19.60;12.30;;;;;;;12.12;56.88;100913.13;7391722;19;19999;-68
2022/10/21 04:33:22;;;;;;;25.42;14.43;;;;;;;12.11;57.47;100915.06;7388870;19;20002;-67
2022/10/21 04:35:47;;;;;;;24.27;13.95;;;;;;;12.15;57.04;100910.47;7391242;19;19999;-67
2022/10/21 04:38:13;;;;;;;24.55;13.40;;;;;;;12.20;57.11;100910.22;7389647;19;20745;-69
2022/10/21 04:40:39;;;;;;;23.77;12.88;;;;;;;12.17;57.06;100904.66;7393561;19;20454;-69
2022/10/21 04:43:05;;;;;;;24.40;12.82;;;;;;;12.12;57.33;100910.38;7397096;19;20005;-66
2022/10/21 04:45:30;;;;;;;24.70;14.35;;;;;;;12.13;57.33;100915.50;7397823;19;20460;-67
2022/10/21 04:47:56;;;;;;;21.27;13.40;;;;;;;12.08;57.58;100910.28;7397209;19;19994;-67
2022/10/21 04:50:21;;;;;;;25.10;14.27;;;;;;;12.20;57.43;100917.63;7396873;19;20483;-68
2022/10/21 04:52:47;;;;;;;28.63;16.83;;;;;;;12.26;56.91;100918.16;7396311;19;20059;-68
2022/10/21 04:55:12;;;;;;;25.55;15.27;;;;;;;12.21;56.87;100911.81;7396861;19;20005;-68
2022/10/21 04:57:39;;;;;;;23.08;13.32;;;;;;;12.09;57.49;100906.41;7396905;19;20416;-68
2022/10/21 05:00:06;;;;;;;27.17;14.98;;;;;;;12.03;57.79;100905.06;7396884;19;20007;-67
2022/10/21 05:02:39;;;;;;;24.20;13.48;;;;;;;12.20;57.24;100907.47;7396803;19;20062;-68
2022/10/21 05:05:05;;;;;;;24.85;14.23;;;;;;;12.26;56.61;100908.03;7395556;19;20010;-68
2022/10/21 05:07:30;;;;;;;27.40;15.00;;;;;;;12.20;57.24;100909.44;7394852;19;19999;-69
2022/10/21 05:09:56;;;;;;;23.02;13.98;;;;;;;12.30;57.06;100911.66;7396148;19;20014;-69
2022/10/21 05:12:21;;;;;;;22.63;13.80;;;;;;;12.39;56.82;100898.63;7395799;19;20002;-68
2022/10/21 05:14:47;;;;;;;24.73;13.98;;;;;;;12.47;56.67;100898.78;7397541;19;20040;-69
2022/10/21 05:17:12;;;;;;;29.13;15.57;;;;;;;12.49;56.80;100899.22;7397069;19;20463;-68
2022/10/21 05:19:38;;;;;;;24.58;14.57;;;;;;;12.53;56.47;100895.44;7396377;19;20329;-68
2022/10/21 05:22:03;;;;;;;28.02;14.05;;;;;;;12.47;56.85;100896.06;7394899;19;20007;-67
2022/10/21 05:24:29;;;;;;;23.05;13.52;;;;;;;12.44;57.04;100881.16;7397222;19;20035;-67
2022/10/21 05:26:55;;;;;;;23.20;14.07;;;;;;;12.55;56.87;100864.97;7395351;19;20016;-68
2022/10/21 05:29:20;;;;;;;26.65;14.55;;;;;;;12.51;57.26;100862.16;7396361;19;20005;-67
2022/10/21 05:31:46;;;;;;;29.63;13.38;;;;;;;12.55;56.98;100854.81;7394699;19;20350;-68
2022/10/21 05:34:11;;;;;;;28.23;15.45;;;;;;;12.62;57.31;100845.19;7394555;19;20419;-68
2022/10/21 05:36:37;;;;;;;31.80;16.25;;;;;;;12.62;56.97;100836.97;7396367;19;19998;-68
2022/10/21 05:39:03;;;;;;;24.83;13.82;;;;;;;12.56;56.95;100848.19;7391064;19;19999;-68
2022/10/21 05:41:28;;;;;;;25.73;15.15;;;;;;;12.45;57.73;100852.59;7394640;19;20019;-68
2022/10/21 05:43:54;;;;;;;27.42;15.38;;;;;;;12.40;57.70;100852.88;7393790;19;20011;-67
2022/10/21 05:46:19;;;;;;;24.67;14.73;;;;;;;12.46;57.52;100856.94;7395922;19;20003;-66
2022/10/21 05:48:45;;;;;;;29.02;14.85;;;;;;;12.55;57.33;100856.75;7395815;19;20021;-68
2022/10/21 05:51:10;;;;;;;23.17;14.20;;;;;;;12.50;57.48;100857.81;7395157;19;20474;-67
2022/10/21 05:53:38;;;;;;;23.55;13.05;;;;;;;12.51;57.47;100853.94;7393171;19;20002;-66
2022/10/21 05:56:06;;;;;;;26.02;14.10;;;;;;;12.51;57.32;100859.41;7395711;19;20001;-67
2022/10/21 05:58:33;;;;;;;20.75;12.48;;;;;;;12.51;57.52;100861.38;7393338;19;20002;-67
2022/10/21 06:00:59;;;;;;;28.85;15.10;;;;;;;12.57;57.76;100851.72;7394186;19;19999;-67
2022/10/21 06:03:30;;;;;;;29.77;14.48;;;;;;;12.67;57.43;100861.34;7393392;19;20074;-67
2022/10/21 06:05:57;;;;;;;29.00;15.52;;;;;;;12.70;57.71;100860.66;7395007;19;20500;-68
2022/10/21 06:08:23;;;;;;;24.75;14.45;;;;;;;12.67;57.43;100855.88;7392618;19;20080;-67
2022/10/21 06:10:48;;;;;;;27.58;15.43;;;;;;;12.69;57.67;100867.25;7396008;19;20014;-64
2022/10/21 06:13:14;;;;;;;22.65;13.57;;;;;;;12.62;58.10;100864.34;7393661;19;20010;-65
2022/10/21 06:15:39;;;;;;;26.13;15.77;;;;;;;12.68;57.98;100866.47;7395075;19;20019;-64
2022/10/21 06:18:05;;;;;;;22.55;13.88;;;;;;;12.76;57.93;100870.97;7393892;19;19998;-66
2022/10/21 06:20:31;;;;;;;27.30;15.23;;;;;;;12.77;57.54;100867.09;7394852;19;19997;-67
2022/10/21 06:22:59;;;;;;;29.63;16.42;;;;;;;12.67;58.01;100870.34;7391827;19;20084;-66
2022/10/21 06:25:24;;;;;;;24.10;14.48;;;;;;;12.68;57.95;100873.91;7395197;19;19999;-69
2022/10/21 06:27:51;;;;;;;26.58;14.88;;;;;;;12.68;57.86;100876.66;7394740;19;20352;-68
2022/10/21 06:30:16;;;;;;;26.95;14.98;;;;;;;12.70;57.81;100869.66;7395206;19;19999;-69
2022/10/21 06:32:42;;;;;;;30.58;17.05;;;;;;;12.62;57.82;100865.16;7393549;19;20012;-67
2022/10/21 06:35:07;;;;;;;28.35;16.70;;;;;;;12.56;58.51;100872.06;7394554;19;20338;-67
2022/10/21 06:37:33;;;;;;;29.77;16.70;;;;;;;12.54;58.37;100874.31;7393026;19;19995;-66
2022/10/21 06:39:59;;;;;;;29.13;14.60;;;;;;;12.62;58.23;100873.34;7393482;19;20025;-66
2022/10/21 06:42:24;;;;;;;26.73;14.27;;;;;;;12.64;58.09;100873.81;7392227;19;20110;-66
2022/10/21 06:44:50;;;;;;;24.70;13.15;;;;;;;12.62;57.90;100875.31;7392347;19;20003;-67
2022/10/21 06:47:16;;;;;;;25.00;13.65;;;;;;;12.53;58.13;100884.50;7392389;19;19994;-67
2022/10/21 06:49:41;;;;;;;20.52;11.70;;;;;;;12.44;58.37;100889.34;7391325;19;20036;-67
2022/10/21 06:52:07;;;;;;;25.10;14.48;;;;;;;12.47;58.28;100894.09;7391690;19;19994;-68
2022/10/21 06:54:32;;;;;;;23.77;13.98;;;;;;;12.58;57.83;100892.44;7392262;19;20031;-67
2022/10/21 06:56:58;;;;;;;29.08;15.73;;;;;;;12.57;58.25;100899.09;7393794;19;20368;-67
2022/10/21 06:59:24;;;;;;;23.50;14.18;;;;;;;12.57;58.50;100896.34;7391903;19;19987;-68
2022/10/21 07:01:49;;;;;;;27.10;15.55;;;;;;;12.58;58.30;100892.44;7391518;19;20066;-68
2022/10/21 07:04:15;;;;;;;25.58;15.48;;;;;;;12.64;58.08;100905.88;7391801;19;20015;-68
2022/10/21 07:06:40;;;;;;;26.52;15.10;;;;;;;12.73;57.98;100898.28;7391413;19;20524;-68
2022/10/21 07:09:07;;;;;;;26.75;15.90;;;;;;;12.74;57.65;100905.34;7388667;19;20019;-67
2022/10/21 07:11:33;;;;;;;30.30;16.30;;;;;;;12.84;57.39;100904.81;7392730;19;20020;-66
2022/10/21 07:14:00;;;;;;;30.23;17.65;;;;;;;12.82;57.84;100901.63;7391158;19;20007;-67
2022/10/21 07:16:31;;;;;;;26.60;16.42;;;;;;;12.85;57.86;100908.34;7393452;19;20006;-66
2022/10/21 07:18:57;;;;;;;34.40;19.45;;;;;;;12.91;57.73;100905.03;7391646;19;20019;-65
2022/10/21 07:21:29;;;;;;;30.13;17.52;;;;;;;12.92;57.85;100912.06;7392399;19;20002;-66
2022/10/21 07:23:56;;;;;;;33.42;19.00;;;;;;;12.98;57.93;100911.81;7391811;19;20047;-66
2022/10/21 07:26:22;;;;;;;33.58;19.95;;;;;;;12.96;57.95;100912.97;7392950;19;19994;-66
2022/10/21 07:28:48;;;;;;;27.75;17.65;;;;;;;13.03;58.03;100917.03;7391559;19;20462;-66
2022/10/21 07:31:18;;;;;;;31.95;18.05;;;;;;;13.08;58.07;100923.03;7390630;19;19994;-66
2022/10/21 07:33:44;;;;;;;31.00;18.20;;;;;;;13.10;57.77;100919.94;7390827;19;20011;-65
2022/10/21 07:36:20;;;;;;;28.83;18.05;;;;;;;13.09;58.10;100916.41;7391958;19;20474;-66
2022/10/21 07:38:46;;;;;;;30.65;17.10;;;;;;;13.12;58.18;100918.41;7390981;19;20007;-65
2022/10/21 07:41:24;;;;;;;28.40;16.55;;;;;;;13.19;58.08;100920.53;7392478;19;19999;-65
2022/10/21 07:43:50;;;;;;;32.38;18.67;;;;;;;13.25;57.96;100918.31;7390588;19;20499;-65
2022/10/21 07:46:17;;;;;;;29.98;17.73;;;;;;;13.26;58.01;100920.72;7391683;19;19998;-67
2022/10/21 07:48:43;;;;;;;30.70;18.67;;;;;;;13.31;57.92;100911.41;7392025;19;20018;-67
2022/10/21 07:51:11;;;;;;;30.13;17.25;;;;;;;13.36;57.98;100910.31;7391746;19;20456;-67
2022/10/21 07:53:38;;;;;;;29.35;18.40;;;;;;;13.36;58.12;100918.56;7389987;19;20479;-67
2022/10/21 07:56:10;;;;;;;31.65;17.52;;;;;;;13.42;58.27;100914.38;7391498;19;20114;-67
2022/10/21 07:58:36;;;;;;;31.20;17.58;;;;;;;13.49;58.14;100911.78;7390592;19;20306;-67
2022/10/21 08:01:04;;;;;;;31.13;17.10;;;;;;;13.48;58.05;100915.72;7390570;19;20474;-67
2022/10/21 08:03:30;;;;;;;30.58;17.20;;;;;;;13.52;58.38;100911.06;7390150;19;20054;-67
2022/10/21 08:05:56;;;;;;;36.10;17.67;;;;;;;13.50;58.55;100910.66;7389785;19;19999;-68
2022/10/21 08:08:22;;;;;;;27.80;16.77;;;;;;;13.57;58.17;100910.78;7390167;19;20799;-65
2022/10/21 08:10:49;;;;;;;30.02;16.70;;;;;;;13.66;57.99;100916.06;7390972;19;20003;-65
2022/10/21 08:13:16;;;;;;;33.20;17.15;;;;;;;13.69;58.05;100916.16;7388348;19;20012;-67
2022/10/21 08:15:46;;;;;;;29.85;16.83;;;;;;;13.76;58.08;100915.53;7390353;19;20467;-65
2022/10/21 08:18:13;;;;;;;26.10;15.68;;;;;;;13.80;58.06;100916.38;7389202;19;20471;-65
2022/10/21 08:20:39;;;;;;;30.85;17.35;;;;;;;13.77;58.50;100910.81;7391157;19;20003;-66
2022/10/21 08:23:06;;;;;;;30.48;17.38;;;;;;;13.79;58.31;100908.50;7390380;19;19994;-65
2022/10/21 08:25:31;;;;;;;27.40;17.08;;;;;;;13.84;58.06;100902.75;7391565;19;19994;-65
2022/10/21 08:27:57;;;;;;;29.30;15.80;;;;;;;13.88;58.15;100906.38;7389705;19;20338;-64
2022/10/21 08:30:24;;;;;;;26.42;15.82;;;;;;;13.92;58.01;100900.97;7390579;19;19999;-64
2022/10/21 08:32:50;;;;;;;31.33;17.38;;;;;;;13.96;58.00;100890.84;7389688;19;20033;-64
2022/10/21 08:35:16;;;;;;;30.98;17.30;;;;;;;13.98;58.02;100899.53;7391524;19;19995;-64
2022/10/21 08:37:41;;;;;;;25.45;16.02;;;;;;;14.02;58.10;100903.91;7390688;19;20515;-65
2022/10/21 08:40:09;;;;;;;29.52;16.60;;;;;;;14.06;57.89;100903.97;7390683;19;19995;-65
2022/10/21 08:42:41;;;;;;;25.33;15.10;;;;;;;14.07;57.83;100903.59;7388222;19;19998;-65
2022/10/21 08:45:33;;;;;;;24.67;14.98;;;;;;;14.05;58.36;100905.94;7390379;19;20101;-65
2022/10/21 08:48:04;;;;;;;25.90;15.80;;;;;;;14.09;58.35;100902.47;7389669;19;19994;-65
2022/10/21 08:50:37;;;;;;;27.00;16.23;;;;;;;14.09;58.00;100905.19;7390710;19;20035;-65
2022/10/21 08:53:09;;;;;;;25.93;13.93;;;;;;;14.12;58.09;100909.97;7390016;19;20455;-65
2022/10/21 08:55:39;;;;;;;27.45;15.90;;;;;;;14.10;58.17;100896.59;7390668;19;20029;-65
2022/10/21 08:58:05;;;;;;;26.52;14.35;;;;;;;14.05;57.89;100902.41;7388398;19;20003;-64
2022/10/21 09:00:55;;;;;;;25.35;14.93;;;;;;;14.01;58.44;100896.84;7391016;19;20462;-65
2022/10/21 09:03:28;;;;;;;26.73;15.60;;;;;;;14.04;58.32;100898.88;7385820;19;20450;-64
2022/10/21 09:06:13;;;;;;;23.85;14.07;;;;;;;14.03;58.39;100899.22;7388411;19;20467;-64
2022/10/21 09:09:00;;;;;;;23.92;14.80;;;;;;;13.99;58.22;100901.88;7387528;19;20007;-64
2022/10/21 09:11:41;;;;;;;28.58;15.70;;;;;;;14.17;58.01;100901.44;7390005;19;20026;-65
2022/10/21 09:14:46;;;;;;;22.40;13.65;;;;;;;14.29;57.76;100895.00;7388026;19;20066;-65
2022/10/21 09:17:28;;;;;;;27.80;15.63;;;;;;;14.32;57.71;100895.03;7387382;19;20009;-66
2022/10/21 09:20:18;;;;;;;28.10;14.52;;;;;;;14.29;58.43;100895.78;7389590;19;20009;-64
2022/10/21 09:23:01;;;;;;;25.00;15.15;;;;;;;14.52;57.30;100900.50;7387138;19;20006;-67
2022/10/21 09:25:33;;;;;;;25.70;15.23;;;;;;;14.53;57.77;100891.91;7389909;19;20023;-66
2022/10/21 09:28:07;;;;;;;23.38;14.30;;;;;;;14.72;57.31;100891.03;7396329;19;19999;-66
2022/10/21 09:30:33;;;;;;;27.67;14.82;;;;;;;14.82;57.03;100888.84;7397418;19;20002;-67
2022/10/21 09:33:00;;;;;;;23.98;13.98;;;;;;;14.76;57.49;100889.16;7395871;19;20317;-67
2022/10/21 09:35:29;;;;;;;22.00;13.20;;;;;;;14.86;56.98;100889.69;7397078;19;20545;-65
2022/10/21 09:38:00;;;;;;;22.90;12.98;;;;;;;14.87;57.01;100885.78;7393801;19;20076;-66
2022/10/21 09:40:33;;;;;;;20.98;12.70;;;;;;;14.89;57.19;100872.47;7395076;19;20081;-66
2022/10/21 09:43:00;;;;;;;21.00;12.52;;;;;;;14.73;57.49;100870.66;7394676;19;20011;-67
2022/10/21 09:45:36;;;;;;;22.30;12.02;;;;;;;15.03;56.55;100877.38;7397052;19;20013;-67
2022/10/21 09:48:16;;;;;;;24.17;13.25;;;;;;;15.17;56.36;100869.34;7395728;19;20006;-67
2022/10/21 09:50:45;;;;;;;21.13;12.25;;;;;;;15.32;56.04;100870.34;7394942;19;20355;-65
2022/10/21 09:53:21;;;;;;;20.27;11.70;;;;;;;15.35;55.86;100875.09;7392814;19;20077;-64
2022/10/21 09:55:50;;;;;;;20.67;11.98;;;;;;;15.33;56.17;100871.91;7396695;19;20003;-65
2022/10/21 09:58:28;;;;;;;20.58;12.32;;;;;;;15.46;55.92;100878.78;7393020;19;20458;-64
2022/10/21 10:00:55;;;;;;;22.15;12.63;;;;;;;15.58;55.67;100872.25;7396111;19;20003;-65
2022/10/21 10:03:32;;;;;;;21.65;11.77;;;;;;;15.55;55.87;100873.78;7391867;19;20002;-65
2022/10/21 10:05:59;;;;;;;20.83;11.57;;;;;;;15.50;56.07;100871.38;7394639;19;19995;-64
2022/10/21 10:08:36;;;;;;;20.08;11.20;;;;;;;15.63;55.73;100873.91;7392053;19;20010;-64
2022/10/21 10:11:08;;;;;;;20.42;11.23;;;;;;;15.72;55.77;100868.91;7396147;19;20017;-66
2022/10/21 10:13:40;;;;;;;22.10;11.27;;;;;;;15.85;55.37;100874.97;7391985;19;20003;-64
2022/10/21 10:16:21;;;;;;;19.40;10.65;;;;;;;15.94;55.14;100863.66;7395604;19;20015;-64
2022/10/21 10:18:48;;;;;;;18.40;10.23;;;;;;;15.94;55.50;100863.66;7392599;19;20341;-65
2022/10/21 10:21:16;;;;;;;18.75;10.68;;;;;;;16.00;55.35;100870.38;7395630;19;20009;-64
2022/10/21 10:24:01;;;;;;;22.15;11.10;;;;;;;16.00;55.45;100867.63;7393450;19;20024;-66
2022/10/21 10:26:37;;;;;;;21.33;10.80;;;;;;;15.99;55.46;100857.81;7395628;19;20006;-65
2022/10/21 10:29:08;;;;;;;18.40;10.02;;;;;;;16.00;55.20;100853.88;7394126;19;19999;-65
2022/10/21 10:31:35;;;;;;;19.85;10.30;;;;;;;15.96;55.55;100859.34;7395413;19;20002;-65
2022/10/21 10:34:06;;;;;;;22.40;9.90;;;;;;;15.95;55.73;100854.22;7392565;19;20002;-65
2022/10/21 10:36:37;;;;;;;16.48;8.98;;;;;;;16.00;55.56;100854.69;7394254;19;20093;-65
2022/10/21 10:39:17;;;;;;;16.95;9.52;;;;;;;16.05;55.39;100862.59;7389560;19;20171;-65
2022/10/21 10:41:47;;;;;;;15.93;9.27;;;;;;;16.07;55.65;100859.47;7393858;19;20487;-65
2022/10/21 10:44:24;;;;;;;16.08;8.68;;;;;;;16.13;55.60;100865.41;7394572;19;20014;-65
2022/10/21 10:46:58;;;;;;;16.50;8.73;;;;;;;16.13;55.49;100862.66;7392441;19;20066;-65
2022/10/21 10:49:25;;;;;;;15.05;8.73;;;;;;;16.18;55.25;100860.34;7392508;19;20517;-65
2022/10/21 10:52:06;;;;;;;14.93;8.10;;;;;;;15.98;55.80;100861.72;7394842;19;20003;-65
2022/10/21 10:54:32;;;;;;;13.77;7.68;;;;;;;16.25;55.05;100860.44;7393518;19;20031;-65
2022/10/21 10:57:25;;;;;;;16.98;7.03;;;;;;;16.35;55.09;100866.41;7394118;19;20361;-64
2022/10/21 10:59:57;;;;;;;13.40;6.75;;;;;;;16.39;54.79;100864.50;7392494;19;20018;-64
2022/10/21 11:02:42;;;;;;;14.02;7.13;;;;;;;16.40;54.63;100863.31;7392399;19;20464;-65
2022/10/21 11:05:35;;;;;;;13.75;6.82;;;;;;;16.41;54.61;100859.38;7393915;19;20032;-66
2022/10/21 11:08:29;;;;;;;14.10;6.15;;;;;;;16.49;54.62;100854.78;7392341;19;20104;-65
2022/10/21 11:10:58;;;;;;;;;;;;;;;16.54;54.58;100860.72;7393347;19;20006;-66
2022/10/21 11:13:24;;;;;;;12.90;6.32;;;;;;;16.65;54.16;100856.09;7391959;19;20008;-65
2022/10/21 11:16:15;;;;;;;13.82;6.70;;;;;;;16.70;53.92;100852.19;7393570;19;19995;-66
2022/10/21 11:19:19;;;;;;;11.50;6.32;;;;;;;16.77;53.94;100849.47;7388923;19;20025;-64
2022/10/21 11:21:50;;;;;;;16.60;6.93;;;;;;;16.80;54.11;100843.19;7393045;19;19999;-65